Time;durP1;ratioP1;P1;durP2;ratioP2;P2;SDS_P1;SDS_P2;PMS_P1;PMS_P2;Temp;Humidity;BMP_temperature;BMP_pressure;BME280_temperature;BME280_humidity;BME280_pressure;Samples;Min_cycle;Max_cycle;Signal;HPM_P1;HPM_P2
2021/12/25 00:05:21;;;;;;;3.72;0.82;;;-1.80;99.90;;;;;;4976509;28;20062;-85
2021/12/25 00:07:50;;;;;;;6.07;1.50;;;-1.40;99.90;;;;;;4959312;28;20477;-87
2021/12/25 00:10:16;;;;;;;5.32;1.77;;;-2.20;99.90;;;;;;4958447;28;20054;-87
2021/12/25 00:12:42;;;;;;;6.05;0.95;;;-2.40;99.90;;;;;;4958602;28;20116;-87
2021/12/25 00:15:10;;;;;;;9.38;1.42;;;-2.20;99.90;;;;;;4976225;28;20046;-86
2021/12/25 00:17:36;;;;;;;9.73;1.40;;;-2.10;99.90;;;;;;4977766;28;20053;-87
2021/12/25 00:20:04;;;;;;;6.97;0.98;;;-3.10;99.90;;;;;;4977531;28;20125;-87
2021/12/25 00:22:33;;;;;;;6.90;1.58;;;-2.40;99.90;;;;;;4979620;28;20046;-88
2021/12/25 00:25:35;;;;;;;8.02;2.75;;;-1.90;99.90;;;;;;4979427;28;20053;-87
2021/12/25 00:36:19;;;;;;;3.75;1.17;;;-2.60;99.90;;;;;;5000379;28;20057;-88
2021/12/25 00:38:50;;;;;;;13.70;2.25;;;-2.30;99.90;;;;;;4998982;28;20053;-88
2021/12/25 00:41:30;;;;;;;1.30;0.60;;;-3.10;99.90;;;;;;4999973;28;20049;-88
2021/12/25 00:44:02;;;;;;;3.67;1.02;;;-1.50;99.90;;;;;;4997528;28;20046;-87
2021/12/25 00:46:28;;;;;;;2.28;0.60;;;-3.30;99.90;;;;;;4981568;28;20111;-86
2021/12/25 00:48:56;;;;;;;;;;;-2.40;99.90;;;;;;4984672;28;20041;-87
2021/12/25 00:51:24;;;;;;;7.07;0.90;;;-2.00;99.90;;;;;;4984115;28;19921;-86
2021/12/25 00:53:53;;;;;;;5.57;1.45;;;-1.90;99.90;;;;;;4983560;28;20507;-86
2021/12/25 00:56:25;;;;;;;2.10;1.08;;;-2.70;99.90;;;;;;4981938;28;20064;-86
2021/12/25 00:58:51;;;;;;;3.55;1.00;;;-3.00;99.90;;;;;;4963412;28;20058;-86
2021/12/25 01:01:20;;;;;;;2.47;0.75;;;-1.90;99.90;;;;;;4960714;28;20060;-86
2021/12/25 01:03:47;;;;;;;6.32;1.40;;;-2.90;99.90;;;;;;4964053;28;20077;-86
2021/12/25 01:06:14;;;;;;;4.93;0.50;;;-2.90;99.90;;;;;;4963853;28;20128;-87
2021/12/25 01:08:45;;;;;;;6.40;1.40;;;-2.90;99.90;;;;;;4963954;28;20089;-87
2021/12/25 01:11:11;;;;;;;3.15;0.95;;;-1.80;99.90;;;;;;4963484;28;20121;-86
2021/12/25 01:13:44;;;;;;;6.28;0.88;;;-3.40;99.90;;;;;;4963154;28;20782;-86
2021/12/25 01:16:28;;;;;;;7.13;2.65;;;-2.80;99.90;;;;;;4963602;28;20498;-86
2021/12/25 01:19:23;;;;;;;35.38;3.10;;;-2.90;99.90;;;;;;4961470;28;20191;-87
2021/12/25 01:22:01;;;;;;;3.95;1.10;;;-3.20;99.90;;;;;;4977038;28;20050;-87
2021/12/25 01:37:42;;;;;;;4.95;1.27;;;-3.10;99.90;;;;;;4976118;28;20050;-87
2021/12/25 01:49:39;;;;;;;7.47;1.42;;;-3.50;99.90;;;;;;4993986;28;20057;-87
2021/12/25 01:52:08;;;;;;;8.60;1.00;;;-3.90;99.90;;;;;;4977194;28;20130;-86
2021/12/25 01:54:40;;;;;;;7.70;1.05;;;-3.90;99.90;;;;;;4962780;28;20055;-86
2021/12/25 01:57:16;;;;;;;3.70;1.10;;;-3.50;99.90;;;;;;4967772;28;20119;-86
2021/12/25 01:59:45;;;;;;;2.35;1.00;;;-3.00;99.90;;;;;;4978796;28;20061;-85
2021/12/25 02:02:15;;;;;;;7.80;2.28;;;-3.70;99.90;;;;;;4979176;28;20046;-86
2021/12/25 02:04:41;;;;;;;8.45;1.55;;;-2.40;99.90;;;;;;4980199;28;20119;-86
2021/12/25 02:07:09;;;;;;;1.85;0.90;;;-2.90;99.90;;;;;;4979113;28;20046;-85
2021/12/25 02:09:35;;;;;;;3.67;0.82;;;-2.60;99.90;;;;;;4981938;28;20053;-85
2021/12/25 02:12:02;;;;;;;2.47;1.00;;;-3.70;99.90;;;;;;4981489;28;20061;-86
2021/12/25 02:14:29;;;;;;;;;;;-3.90;99.90;;;;;;4981391;28;20357;-85
2021/12/25 02:17:01;;;;;;;;;;;-3.60;99.90;;;;;;4981247;28;19929;-85
2021/12/25 02:19:43;;;;;;;1.85;0.85;;;-2.80;99.90;;;;;;4980306;28;19976;-86
2021/12/25 02:22:11;;;;;;;3.88;1.35;;;-3.70;99.90;;;;;;4979267;28;20046;-85
2021/12/25 02:24:37;;;;;;;4.93;1.17;;;-3.10;99.90;;;;;;5012925;28;20061;-84
2021/12/25 02:27:05;;;;;;;2.50;1.23;;;-3.00;99.90;;;;;;4996902;28;20049;-84
2021/12/25 02:29:32;;;;;;;3.90;1.40;;;-2.50;99.90;;;;;;4996022;28;20115;-84
2021/12/25 02:31:59;;;;;;;3.55;1.00;;;-2.80;99.90;;;;;;5011573;28;20053;-85
2021/12/25 02:34:25;;;;;;;2.65;1.02;;;-3.70;99.90;;;;;;4979530;28;20069;-85
2021/12/25 02:36:51;;;;;;;;;;;-2.60;99.90;;;;;;4993095;28;20058;-84
2021/12/25 02:39:18;;;;;;;2.58;0.80;;;-3.70;99.90;;;;;;4976479;28;20343;-84
2021/12/25 02:41:43;;;;;;;6.38;2.03;;;-3.90;99.90;;;;;;4991846;28;20573;-84
2021/12/25 02:44:09;;;;;;;2.78;0.75;;;-3.20;99.90;;;;;;4975957;28;20138;-85
2021/12/25 02:46:35;;;;;;;9.98;0.98;;;-3.90;99.90;;;;;;4982794;28;20081;-84
2021/12/25 02:49:02;;;;;;;5.00;1.00;;;-3.70;99.90;;;;;;4979144;28;20050;-84
2021/12/25 02:51:28;;;;;;;1.38;0.57;;;-3.80;99.90;;;;;;4979384;28;20164;-84
2021/12/25 02:53:54;;;;;;;3.17;0.65;;;-4.10;99.90;;;;;;4994738;28;20065;-83
2021/12/25 02:56:20;;;;;;;4.03;0.70;;;-3.90;99.90;;;;;;5002512;28;20061;-83
2021/12/25 02:58:46;;;;;;;3.28;0.90;;;-3.50;99.90;;;;;;4977559;28;20065;-83
2021/12/25 03:01:17;;;;;;;1.27;0.60;;;-3.60;99.90;;;;;;4978445;28;20049;-83
2021/12/25 03:03:44;;;;;;;3.83;0.60;;;-4.00;99.90;;;;;;4994655;28;20046;-84
2021/12/25 03:06:11;;;;;;;0.75;0.60;;;-4.10;99.90;;;;;;4978920;28;20045;-84
2021/12/25 03:08:38;;;;;;;3.28;0.80;;;-3.50;99.90;;;;;;4976678;28;20054;-84
2021/12/25 03:11:06;;;;;;;2.75;0.63;;;-2.80;99.90;;;;;;4976958;28;20060;-83
2021/12/25 03:13:36;;;;;;;1.60;0.88;;;-3.20;99.90;;;;;;4976603;28;20049;-84
2021/12/25 03:16:07;;;;;;;4.05;1.13;;;-4.20;99.90;;;;;;5010078;28;20427;-84
2021/12/25 03:18:40;;;;;;;2.00;0.82;;;-3.80;99.90;;;;;;4975998;28;20416;-84
2021/12/25 03:21:06;;;;;;;3.90;0.80;;;-3.30;99.90;;;;;;4993196;28;20046;-83
2021/12/25 03:23:36;;;;;;;2.28;0.52;;;-4.00;99.90;;;;;;4976747;28;20862;-83
2021/12/25 03:26:04;;;;;;;1.25;0.80;;;-3.50;99.90;;;;;;4976359;28;20050;-84
2021/12/25 03:28:32;;;;;;;1.23;0.47;;;-4.00;99.90;;;;;;4975344;28;20056;-84
2021/12/25 03:31:04;;;;;;;1.83;0.57;;;-4.20;99.90;;;;;;4975201;28;20104;-84
2021/12/25 03:33:30;;;;;;;2.63;1.00;;;-4.40;99.90;;;;;;4974624;28;20492;-84
2021/12/25 03:35:56;;;;;;;2.00;0.47;;;-4.30;99.90;;;;;;5011017;28;20053;-84
2021/12/25 03:38:22;;;;;;;;;;;-4.20;99.90;;;;;;4977781;28;20052;-83
2021/12/25 03:40:50;;;;;;;3.50;0.60;;;-4.40;99.90;;;;;;4994498;28;20008;-84
2021/12/25 03:43:17;;;;;;;2.42;0.70;;;-4.40;99.90;;;;;;4977346;28;20045;-84
2021/12/25 03:45:45;;;;;;;4.80;0.60;;;-4.10;99.90;;;;;;4977478;28;20049;-84
2021/12/25 03:57:37;;;;;;;2.65;0.95;;;-3.60;99.90;;;;;;5011699;28;20052;-83
2021/12/25 03:59:11;;;;;;;1.08;0.45;;;-5.10;99.90;;;;;;4990365;28;20534;-84
2021/12/25 04:06:44;;;;;;;2.00;0.80;;;-4.50;99.90;;;;;;4973489;28;20055;-84
2021/12/25 04:09:20;;;;;;;0.77;0.50;;;-3.30;99.90;;;;;;4973556;28;20054;-84
2021/12/25 04:11:47;;;;;;;0.90;0.47;;;-4.40;99.90;;;;;;4958007;28;20493;-85
2021/12/25 04:14:13;;;;;;;2.33;0.70;;;-4.70;99.90;;;;;;4958378;28;20054;-84
2021/12/25 04:16:39;;;;;;;3.00;0.65;;;-4.80;99.90;;;;;;4958383;28;20082;-84
2021/12/25 04:19:05;;;;;;;0.30;0.30;;;-4.50;99.90;;;;;;4959346;28;20081;-84
2021/12/25 04:21:31;;;;;;;2.83;0.60;;;-4.40;99.90;;;;;;4974969;28;20108;-84
2021/12/25 04:23:57;;;;;;;1.30;0.85;;;-4.10;99.90;;;;;;4961968;28;20054;-84
2021/12/25 04:26:24;;;;;;;5.53;1.10;;;-4.00;99.90;;;;;;4993984;28;20050;-85
2021/12/25 04:29:05;;;;;;;1.80;0.85;;;-5.20;99.90;;;;;;4962686;28;20054;-84
2021/12/25 04:31:49;;;;;;;0.90;0.35;;;-4.50;99.90;;;;;;4962148;28;20108;-85
2021/12/25 05:04:15;;;;;;;2.10;0.65;;;-5.40;99.90;;;;;;4998217;28;20049;-84
2021/12/25 05:06:41;;;;;;;4.40;0.73;;;-5.10;99.90;;;;;;4981676;28;20082;-86
2021/12/25 05:09:09;;;;;;;;;;;-5.20;99.90;;;;;;4998229;28;20124;-84
2021/12/25 05:11:35;;;;;;;0.77;0.47;;;-4.70;99.90;;;;;;4981672;28;19937;-84
2021/12/25 05:14:01;;;;;;;0.98;0.60;;;-5.20;99.90;;;;;;4981501;28;20065;-84
2021/12/25 05:16:30;;;;;;;6.47;0.80;;;-4.60;99.90;;;;;;4981881;28;20064;-84
2021/12/25 05:18:56;;;;;;;1.75;0.50;;;-6.10;99.90;;;;;;4980886;28;20058;-84
2021/12/25 05:21:22;;;;;;;1.50;0.57;;;-4.40;99.90;;;;;;4980527;28;20054;-84
2021/12/25 05:23:51;;;;;;;4.38;0.80;;;-5.00;99.90;;;;;;4981119;28;20045;-84
2021/12/25 05:26:17;;;;;;;5.43;1.08;;;-4.10;99.90;;;;;;4980909;28;20054;-84
2021/12/25 05:28:46;;;;;;;1.50;0.70;;;-4.50;99.90;;;;;;4981097;28;20056;-84
2021/12/25 05:31:14;;;;;;;1.52;1.00;;;-5.30;99.90;;;;;;4981003;28;20481;-84
2021/12/25 05:33:43;;;;;;;2.13;0.70;;;-4.70;99.90;;;;;;4996959;28;20038;-84
2021/12/25 05:36:12;;;;;;;3.10;0.73;;;-6.20;99.90;;;;;;4981709;28;20060;-84
2021/12/25 05:38:38;;;;;;;6.15;1.17;;;-5.10;99.90;;;;;;4981448;28;20068;-84
2021/12/25 05:41:04;;;;;;;6.30;0.95;;;-5.40;99.90;;;;;;4981153;28;20136;-83
2021/12/25 05:43:30;;;;;;;5.32;1.17;;;-5.10;99.90;;;;;;4980544;28;20092;-84
2021/12/25 05:45:56;;;;;;;4.00;1.30;;;-4.30;99.90;;;;;;4996657;28;20050;-84
2021/12/25 05:48:22;;;;;;;3.60;1.50;;;-4.90;99.90;;;;;;4980626;28;20376;-84
2021/12/25 05:50:48;;;;;;;2.03;0.95;;;-5.70;99.90;;;;;;4996258;28;20096;-84
2021/12/25 05:53:15;;;;;;;1.83;0.88;;;-4.90;99.90;;;;;;4979304;28;20054;-84
2021/12/25 05:55:41;;;;;;;2.45;0.88;;;-5.70;99.90;;;;;;4979441;28;20069;-84
2021/12/25 05:58:09;;;;;;;;;;;-5.30;99.90;;;;;;4979784;28;20519;-84
2021/12/25 06:00:37;;;;;;;8.90;0.85;;;-5.50;99.90;;;;;;4995385;28;20347;-84
2021/12/25 06:03:03;;;;;;;1.65;0.68;;;-5.70;99.90;;;;;;4979286;28;20054;-83
2021/12/25 06:05:32;;;;;;;3.95;0.90;;;-5.20;99.90;;;;;;4996900;28;20144;-84
2021/12/25 06:08:04;;;;;;;3.75;0.90;;;-5.10;99.90;;;;;;4980240;28;20052;-84
2021/12/25 06:10:35;;;;;;;3.67;0.88;;;-5.40;99.90;;;;;;4978728;28;20445;-84
2021/12/25 06:13:01;;;;;;;1.60;0.80;;;-6.00;99.90;;;;;;4977658;28;20136;-84
2021/12/25 06:15:30;;;;;;;7.72;0.80;;;-4.10;99.90;;;;;;4978045;28;20046;-84
2021/12/25 06:17:57;;;;;;;1.45;0.75;;;-5.40;99.90;;;;;;4978787;28;20123;-84
2021/12/25 06:20:23;;;;;;;3.65;0.60;;;-5.10;99.90;;;;;;4977526;28;20134;-84
2021/12/25 06:22:52;;;;;;;1.40;0.60;;;-5.40;99.90;;;;;;4978320;28;20046;-84
2021/12/25 06:25:21;;;;;;;2.35;1.08;;;-5.60;99.90;;;;;;4979184;28;20496;-84
2021/12/25 06:27:53;;;;;;;1.67;0.88;;;-4.40;99.90;;;;;;4980784;28;20066;-84
2021/12/25 06:30:21;;;;;;;2.67;0.60;;;-6.10;99.90;;;;;;4980695;28;20058;-84
2021/12/25 06:32:58;;;;;;;4.68;0.90;;;-5.30;99.90;;;;;;4979671;28;20072;-83
2021/12/25 06:35:31;;;;;;;1.85;0.77;;;-5.70;99.90;;;;;;4980619;28;20088;-84
2021/12/25 06:38:14;;;;;;;2.25;0.82;;;-5.10;99.90;;;;;;4983537;28;20053;-84
2021/12/25 06:40:40;;;;;;;8.50;0.95;;;-6.30;99.90;;;;;;4985081;28;20050;-84
2021/12/25 06:43:09;;;;;;;2.15;0.95;;;-5.80;99.90;;;;;;4984667;28;20614;-84
2021/12/25 06:45:37;;;;;;;13.88;3.33;;;-5.40;99.90;;;;;;4978754;28;20058;-84
2021/12/25 06:48:03;;;;;;;4.13;0.75;;;-5.40;99.90;;;;;;4977420;28;20057;-84
2021/12/25 06:50:34;;;;;;;1.58;0.65;;;-5.70;99.90;;;;;;4977197;28;20518;-84
2021/12/25 06:53:08;;;;;;;1.65;0.47;;;-5.90;99.90;;;;;;4976841;28;20057;-85
2021/12/25 06:55:43;;;;;;;1.60;0.60;;;-4.70;99.90;;;;;;4978512;28;20061;-84
2021/12/25 06:58:39;;;;;;;1.67;0.65;;;-5.70;99.90;;;;;;4978495;28;20153;-85
2021/12/25 07:04:36;;;;;;;0.68;0.40;;;-6.70;99.90;;;;;;4951223;29;20108;-84
2021/12/25 07:07:02;;;;;;;3.28;0.80;;;-5.20;99.90;;;;;;4916255;29;20052;-84
2021/12/25 07:09:49;;;;;;;1.73;1.00;;;-5.60;99.90;;;;;;4916592;29;20059;-84
2021/12/25 07:12:58;;;;;;;7.72;1.20;;;-5.70;99.90;;;;;;4886966;29;20613;-84
2021/12/25 07:15:29;;;;;;;1.83;0.52;;;-5.60;99.90;;;;;;4933081;28;20101;-84
2021/12/25 07:18:29;;;;;;;4.30;0.57;;;-6.00;99.90;;;;;;4958815;28;20061;-84
2021/12/25 07:21:15;;;;;;;3.85;0.60;;;-5.50;99.90;;;;;;4959387;28;20155;-83
2021/12/25 07:23:48;;;;;;;2.70;1.00;;;-5.20;99.90;;;;;;4956970;28;20124;-83
2021/12/25 07:26:29;;;;;;;;;;;;;;;;;;;;;
2021/12/25 07:28:56;;;;;;;5.93;0.75;;;-5.80;99.90;;;;;;4974996;28;20140;-83
2021/12/25 07:31:22;;;;;;;;;;;-5.70;99.90;;;;;;4974281;28;20101;-83
2021/12/25 07:33:48;;;;;;;2.60;0.60;;;-5.80;99.90;;;;;;4957467;28;19929;-83
2021/12/25 07:36:14;;;;;;;2.97;0.75;;;-6.00;99.90;;;;;;4958658;28;20097;-84
2021/12/25 07:38:40;;;;;;;3.15;1.13;;;-5.90;99.90;;;;;;4958968;28;20050;-83
2021/12/25 07:41:19;;;;;;;1.70;0.60;;;-5.20;99.90;;;;;;4973369;28;20064;-84
2021/12/25 07:43:48;;;;;;;3.20;0.70;;;-5.60;99.90;;;;;;4977959;28;20887;-84
2021/12/25 07:46:14;;;;;;;;;;;-5.90;99.90;;;;;;4978933;28;20050;-83
2021/12/25 07:48:41;;;;;;;1.27;0.60;;;-5.70;99.90;;;;;;4976790;28;19925;-83
2021/12/25 07:51:07;;;;;;;0.68;0.32;;;-6.40;99.90;;;;;;4977179;28;20469;-83
2021/12/25 07:53:33;;;;;;;2.17;0.93;;;-5.20;99.90;;;;;;4975198;28;20046;-83
2021/12/25 07:55:59;;;;;;;;;;;-5.40;99.90;;;;;;4995062;28;20053;-83
2021/12/25 07:58:29;;;;;;;5.30;2.05;;;-4.70;99.90;;;;;;4981086;28;19971;-84
2021/12/25 08:00:57;;;;;;;4.53;0.70;;;-4.60;99.90;;;;;;4983157;28;20181;-84
2021/12/25 08:03:23;;;;;;;5.22;1.17;;;-4.60;99.90;;;;;;4982636;28;20049;-84
2021/12/25 08:06:53;;;;;;;1.00;0.68;;;-5.00;99.90;;;;;;4982979;28;20064;-85
2021/12/25 08:09:49;;;;;;;1.27;0.68;;;-5.80;99.90;;;;;;4900581;29;20048;-85
2021/12/25 08:12:35;;;;;;;3.03;0.95;;;-5.70;99.90;;;;;;4937187;29;20059;-85
2021/12/25 08:15:22;;;;;;;4.80;1.10;;;-5.80;99.90;;;;;;4940900;29;20087;-85
2021/12/25 08:17:51;;;;;;;4.38;1.35;;;-5.90;99.90;;;;;;4921096;29;20059;-84
2021/12/25 08:20:38;;;;;;;2.17;0.80;;;-5.90;99.90;;;;;;4923666;29;20062;-85
2021/12/25 08:23:17;;;;;;;2.78;0.70;;;-5.40;99.90;;;;;;4939682;29;20055;-84
2021/12/25 08:25:45;;;;;;;5.20;0.90;;;-6.20;99.90;;;;;;4966913;28;20962;-85
2021/12/25 08:28:13;;;;;;;2.78;1.27;;;-5.60;99.90;;;;;;5003305;28;20053;-84
2021/12/25 08:30:47;;;;;;;1.60;0.73;;;-6.00;99.90;;;;;;5003495;28;20045;-84
2021/12/25 08:33:19;;;;;;;3.45;0.90;;;-5.20;99.90;;;;;;5003298;28;20056;-85
2021/12/25 08:35:47;;;;;;;2.22;0.80;;;-6.40;99.90;;;;;;4996035;28;20095;-84
2021/12/25 08:38:29;;;;;;;3.95;0.77;;;-5.50;99.90;;;;;;5004267;28;20068;-85
2021/12/25 08:41:01;;;;;;;4.00;0.90;;;-6.30;99.90;;;;;;5004508;28;20473;-85
2021/12/25 08:44:03;;;;;;;2.40;0.77;;;-5.50;99.90;;;;;;5003537;28;20399;-84
2021/12/25 08:49:38;;;;;;;5.43;0.90;;;-5.90;99.90;;;;;;5011571;28;20050;-85
2021/12/25 08:52:13;;;;;;;5.55;0.80;;;-5.30;99.90;;;;;;5003815;28;20060;-85
2021/12/25 08:54:45;;;;;;;2.05;0.88;;;-5.20;99.90;;;;;;5002552;28;20124;-85
2021/12/25 08:57:20;;;;;;;2.22;0.77;;;-4.50;99.90;;;;;;4964396;28;20051;-85
2021/12/25 08:59:55;;;;;;;2.08;0.68;;;-5.30;99.90;;;;;;4963715;28;20184;-85
2021/12/25 09:02:42;;;;;;;2.58;1.10;;;-5.10;99.90;;;;;;4963735;28;20072;-84
2021/12/25 09:05:27;;;;;;;3.20;0.60;;;-5.20;99.90;;;;;;4980521;28;20073;-84
2021/12/25 09:08:18;;;;;;;1.88;0.70;;;-5.70;99.90;;;;;;4961894;28;20060;-85
2021/12/25 09:10:51;;;;;;;4.93;1.20;;;-4.90;99.90;;;;;;4980571;28;20054;-82
2021/12/25 09:13:17;;;;;;;3.65;0.93;;;-5.00;99.90;;;;;;4982823;28;20054;-84
2021/12/25 09:15:53;;;;;;;;;;;-4.90;99.90;;;;;;4983015;28;20085;-84
2021/12/25 09:18:29;;;;;;;2.08;0.43;;;-3.90;99.90;;;;;;4985778;28;19921;-83
2021/12/25 09:21:02;;;;;;;3.65;1.30;;;-3.90;99.90;;;;;;4980647;28;20170;-84
2021/12/25 09:23:32;;;;;;;6.18;1.15;;;-3.70;99.90;;;;;;4972459;28;20057;-83
2021/12/25 09:26:00;;;;;;;6.95;1.00;;;-5.00;99.90;;;;;;4961347;28;20050;-84
2021/12/25 09:28:40;;;;;;;4.10;0.90;;;-4.40;99.90;;;;;;4959969;28;20050;-84
2021/12/25 09:31:06;;;;;;;7.28;1.23;;;-4.50;99.90;;;;;;4961177;28;20401;-84
2021/12/25 09:33:32;;;;;;;;;;;-4.60;99.90;;;;;;4959205;28;20050;-84
2021/12/25 09:36:03;;;;;;;1.73;1.00;;;-4.40;99.90;;;;;;4974117;28;20269;-84
2021/12/25 09:38:30;;;;;;;2.45;0.90;;;-5.20;99.90;;;;;;4974021;28;20058;-84
2021/12/25 09:40:58;;;;;;;1.20;0.63;;;-4.20;99.90;;;;;;4974226;28;20064;-84
2021/12/25 09:43:25;;;;;;;2.53;0.80;;;-3.30;99.90;;;;;;4977192;28;20522;-84
2021/12/25 09:45:53;;;;;;;1.58;0.80;;;-3.50;99.90;;;;;;4976529;28;20044;-84
2021/12/25 09:48:25;;;;;;;2.00;0.55;;;-4.30;99.90;;;;;;4977326;28;20054;-84
2021/12/25 09:50:53;;;;;;;3.60;1.85;;;-2.90;99.90;;;;;;4976843;28;20686;-84
2021/12/25 09:53:20;;;;;;;2.00;1.00;;;-3.00;99.90;;;;;;4972679;28;20086;-84
2021/12/25 09:55:49;;;;;;;1.98;0.50;;;-4.50;99.90;;;;;;4965289;28;20145;-84
2021/12/25 09:58:15;;;;;;;1.23;0.70;;;-3.80;99.90;;;;;;4963541;28;20066;-84
2021/12/25 10:00:44;;;;;;;;;;;-3.90;99.90;;;;;;4971310;28;20114;-83
2021/12/25 10:03:10;;;;;;;2.00;1.10;;;-3.50;99.90;;;;;;4959458;28;20383;-83
2021/12/25 10:05:41;;;;;;;0.77;0.50;;;-3.30;99.90;;;;;;4973584;28;20095;-84
2021/12/25 10:08:25;;;;;;;2.28;0.80;;;-3.50;99.90;;;;;;4975233;28;20512;-84
2021/12/25 10:10:59;;;;;;;1.98;0.57;;;-3.40;99.90;;;;;;4975446;28;20092;-84
2021/12/25 10:13:35;;;;;;;1.50;0.75;;;-3.60;99.90;;;;;;4975591;28;20089;-84
2021/12/25 10:16:25;;;;;;;6.70;1.33;;;-3.60;99.90;;;;;;4975666;28;20054;-84
2021/12/25 10:18:53;;;;;;;2.47;1.10;;;-3.20;99.90;;;;;;4975297;28;20081;-83
2021/12/25 10:21:29;;;;;;;5.97;0.77;;;-2.10;99.90;;;;;;4974028;28;20076;-83
2021/12/25 10:24:06;;;;;;;2.53;0.82;;;-2.70;99.90;;;;;;4973507;28;20054;-83
2021/12/25 10:26:35;;;;;;;2.38;0.55;;;-3.20;99.90;;;;;;4974666;28;20441;-83
2021/12/25 10:29:32;;;;;;;4.63;1.58;;;-3.20;99.90;;;;;;4975993;28;20397;-83
2021/12/25 10:32:02;;;;;;;12.98;1.88;;;-3.10;99.90;;;;;;4977027;28;20838;-83
2021/12/25 10:34:30;;;;;;;5.75;1.58;;;-2.60;99.90;;;;;;4976873;28;20061;-83
2021/12/25 10:37:11;;;;;;;1.35;0.65;;;-2.90;99.90;;;;;;4976991;28;20158;-83
2021/12/25 10:39:38;;;;;;;3.80;0.95;;;-2.50;99.90;;;;;;4977266;28;20050;-84
2021/12/25 10:42:11;;;;;;;3.47;0.90;;;-3.70;99.90;;;;;;4976372;28;20129;-85
2021/12/25 10:44:53;;;;;;;5.45;0.80;;;-3.00;99.90;;;;;;4958386;28;20492;-84
2021/12/25 10:47:24;;;;;;;1.25;0.60;;;-3.00;99.90;;;;;;4974957;28;20556;-84
2021/12/25 10:49:53;;;;;;;3.83;0.85;;;-3.10;99.90;;;;;;4976744;28;20070;-84
2021/12/25 10:52:25;;;;;;;1.08;0.52;;;-2.40;99.90;;;;;;4967347;28;20054;-84
2021/12/25 10:54:59;;;;;;;2.83;0.73;;;-2.80;99.90;;;;;;4975707;28;20050;-84
2021/12/25 10:57:37;;;;;;;2.90;0.95;;;-2.90;99.90;;;;;;4971449;28;20066;-84
2021/12/25 11:00:28;;;;;;;2.45;0.90;;;-2.70;99.90;;;;;;4971676;28;20358;-84
2021/12/25 11:03:00;;;;;;;5.22;1.00;;;-2.50;99.90;;;;;;4945764;28;20058;-84
2021/12/25 11:05:44;;;;;;;1.25;0.57;;;-2.80;99.90;;;;;;4970799;28;20100;-84
2021/12/25 11:08:18;;;;;;;9.52;2.35;;;-2.70;99.90;;;;;;4970938;28;20551;-84
2021/12/25 11:10:47;;;;;;;3.13;0.98;;;-2.70;99.90;;;;;;4970840;28;20061;-84
2021/12/25 11:13:24;;;;;;;3.97;0.95;;;-2.60;99.90;;;;;;4970395;28;20073;-84
2021/12/25 11:15:57;;;;;;;3.85;1.00;;;-2.50;99.90;;;;;;4970257;28;20649;-84
2021/12/25 11:18:23;;;;;;;2.53;0.88;;;-2.40;99.90;;;;;;4970023;28;20112;-84
2021/12/25 11:20:49;;;;;;;;;;;-2.50;99.90;;;;;;4970995;28;20050;-84
2021/12/25 11:23:17;;;;;;;5.15;1.08;;;-3.30;99.90;;;;;;4955076;28;20344;-84
2021/12/25 11:25:44;;;;;;;1.67;0.63;;;-2.80;99.90;;;;;;4970953;28;20063;-83
2021/12/25 11:28:14;;;;;;;1.23;0.50;;;-2.10;99.90;;;;;;4970577;28;20054;-83
2021/12/25 11:30:43;;;;;;;1.77;0.60;;;-2.90;99.90;;;;;;4970886;28;20053;-83
2021/12/25 11:33:09;;;;;;;1.30;0.68;;;-2.60;99.90;;;;;;4970671;28;20050;-83
2021/12/25 11:35:37;;;;;;;2.33;0.80;;;-2.50;99.90;;;;;;4971212;28;20060;-82
2021/12/25 11:38:05;;;;;;;6.30;0.88;;;-2.60;99.90;;;;;;4971030;28;20133;-83
2021/12/25 11:40:35;;;;;;;2.17;0.57;;;-1.50;99.90;;;;;;4986900;28;20520;-83
2021/12/25 11:43:04;;;;;;;7.38;0.80;;;-1.70;99.90;;;;;;4970586;28;20405;-83
2021/12/25 11:45:39;;;;;;;1.92;0.73;;;-2.30;99.90;;;;;;4970554;28;20092;-83
2021/12/25 11:48:19;;;;;;;1.25;0.77;;;-2.40;99.90;;;;;;4971163;28;20054;-83
2021/12/25 11:50:49;;;;;;;0.68;0.50;;;-2.30;99.90;;;;;;4970998;28;20150;-83
2021/12/25 11:53:40;;;;;;;3.05;0.90;;;-2.60;99.90;;;;;;4970373;28;20046;-83
2021/12/25 11:58:48;;;;;;;2.45;1.33;;;-2.30;99.90;;;;;;4955217;28;20054;-83
2021/12/25 12:01:22;;;;;;;1.63;0.60;;;-2.20;99.90;;;;;;4952103;28;20051;-83
2021/12/25 12:03:57;;;;;;;4.38;1.10;;;-1.70;99.90;;;;;;4952176;28;20047;-83
2021/12/25 12:06:48;;;;;;;4.38;0.68;;;-1.40;99.90;;;;;;4936925;28;20105;-84
2021/12/25 12:09:29;;;;;;;2.88;0.60;;;-2.20;99.90;;;;;;4953396;28;20094;-83
2021/12/25 12:12:03;;;;;;;2.28;0.50;;;-2.10;99.90;;;;;;4959189;28;20046;-83
2021/12/25 12:14:30;;;;;;;3.58;1.17;;;-1.70;99.90;;;;;;4963092;28;20089;-83
2021/12/25 12:17:02;;;;;;;2.83;1.13;;;-1.30;99.90;;;;;;4947702;28;20053;-84
2021/12/25 12:19:31;;;;;;;1.17;0.63;;;-2.30;99.90;;;;;;4956475;28;20058;-84
2021/12/25 12:21:59;;;;;;;2.80;0.70;;;-1.30;99.90;;;;;;4952210;28;20062;-83
2021/12/25 12:26:59;;;;;;;1.35;0.57;;;-1.20;99.90;;;;;;4952290;28;20058;-84
2021/12/25 12:29:49;;;;;;;1.25;0.60;;;-1.30;99.90;;;;;;4935723;28;20061;-83
2021/12/25 12:32:23;;;;;;;2.70;1.35;;;-1.70;99.90;;;;;;4968265;28;20109;-83
2021/12/25 12:34:54;;;;;;;3.13;0.70;;;-1.70;99.90;;;;;;4953175;28;20528;-83
2021/12/25 12:37:19;;;;;;;3.65;0.70;;;-1.20;99.90;;;;;;4938238;28;20370;-84
2021/12/25 12:39:59;;;;;;;2.55;0.70;;;-0.80;99.90;;;;;;4953291;28;20062;-84
2021/12/25 12:42:44;;;;;;;6.30;0.60;;;-1.50;99.90;;;;;;4952621;28;20055;-83
2021/12/25 12:45:24;;;;;;;3.83;0.77;;;-1.60;99.90;;;;;;4954555;28;20097;-83
2021/12/25 12:48:11;;;;;;;1.55;0.68;;;-1.60;99.90;;;;;;4955025;28;20054;-84
2021/12/25 12:50:39;;;;;;;4.40;1.30;;;-1.80;99.90;;;;;;4954676;28;20055;-84
2021/12/25 12:53:09;;;;;;;6.50;0.93;;;-1.50;99.90;;;;;;4938907;28;20337;-83
2021/12/25 12:55:46;;;;;;;2.33;0.70;;;-1.30;99.90;;;;;;4954692;28;20062;-84
2021/12/25 12:58:22;;;;;;;3.58;1.10;;;-1.20;99.90;;;;;;4949582;28;20062;-84
2021/12/25 13:00:55;;;;;;;3.08;0.75;;;-1.40;99.90;;;;;;4974716;28;20108;-84
2021/12/25 13:03:22;;;;;;;4.60;0.82;;;-0.80;99.90;;;;;;4958141;28;20058;-84
2021/12/25 13:06:02;;;;;;;2.92;0.80;;;-0.90;99.90;;;;;;4974019;28;20509;-84
2021/12/25 13:08:31;;;;;;;2.20;1.27;;;-1.40;99.90;;;;;;4973417;28;20050;-84
2021/12/25 13:11:09;;;;;;;6.25;0.88;;;-1.00;99.90;;;;;;4974148;28;20373;-84
2021/12/25 13:13:40;;;;;;;5.15;1.55;;;-0.80;99.90;;;;;;4973027;28;20050;-83
2021/12/25 13:16:11;;;;;;;7.57;2.10;;;-1.30;99.90;;;;;;4973395;28;20061;-84
2021/12/25 13:18:45;;;;;;;3.30;0.98;;;-0.70;99.90;;;;;;4973533;28;20562;-84
2021/12/25 13:21:14;;;;;;;2.47;1.30;;;-0.70;99.90;;;;;;4973918;28;20050;-84
2021/12/25 13:23:50;;;;;;;3.85;1.17;;;-1.20;99.90;;;;;;4974073;28;20109;-84
2021/12/25 13:26:21;;;;;;;2.75;0.70;;;-1.20;99.90;;;;;;4974208;28;20054;-85
2021/12/25 13:28:52;;;;;;;2.67;0.90;;;-1.30;99.90;;;;;;4974196;28;20058;-84
2021/12/25 13:31:21;;;;;;;3.22;0.80;;;-0.60;99.90;;;;;;4966233;28;21322;-84
2021/12/25 13:33:52;;;;;;;4.25;0.75;;;-0.80;99.90;;;;;;4958206;28;20054;-84
2021/12/25 13:36:21;;;;;;;3.10;0.80;;;-1.20;99.90;;;;;;4974328;28;20053;-84
2021/12/25 13:39:03;;;;;;;3.17;1.02;;;-1.20;99.90;;;;;;4974165;28;20412;-85
2021/12/25 13:41:53;;;;;;;6.22;1.42;;;-1.20;99.90;;;;;;4973855;28;20884;-84
2021/12/25 13:44:41;;;;;;;8.10;1.33;;;-1.00;99.90;;;;;;4973603;28;20583;-85
2021/12/25 13:47:13;;;;;;;3.22;0.85;;;-1.10;99.90;;;;;;4972880;28;20070;-85
2021/12/25 13:49:49;;;;;;;4.03;1.55;;;-1.00;99.90;;;;;;4973705;28;20058;-84
2021/12/25 13:52:22;;;;;;;2.80;0.82;;;-1.10;99.90;;;;;;4974481;28;20058;-84
2021/12/25 13:54:57;;;;;;;5.90;1.67;;;-1.20;99.90;;;;;;4972748;28;20053;-84
2021/12/25 13:57:28;;;;;;;3.20;0.85;;;-1.30;99.90;;;;;;4973276;28;20066;-84
2021/12/25 14:00:02;;;;;;;4.95;1.10;;;-1.20;99.90;;;;;;4973634;28;20046;-84
2021/12/25 14:02:29;;;;;;;4.70;0.80;;;-2.10;99.90;;;;;;4973987;28;20058;-84
2021/12/25 14:04:56;;;;;;;5.25;1.00;;;-1.20;99.90;;;;;;4973818;28;20150;-83
2021/12/25 14:07:26;;;;;;;3.05;0.80;;;-1.90;99.90;;;;;;4989870;28;20133;-84
2021/12/25 14:10:03;;;;;;;4.18;1.05;;;-2.10;99.90;;;;;;4973218;28;20153;-84
2021/12/25 14:12:30;;;;;;;5.00;1.48;;;-2.20;99.90;;;;;;4973380;28;20101;-83
2021/12/25 14:14:57;;;;;;;2.53;1.00;;;-2.30;99.90;;;;;;4973359;28;20051;-84
2021/12/25 14:17:26;;;;;;;3.95;0.93;;;-2.50;99.90;;;;;;4972257;28;20058;-83
2021/12/25 14:20:23;;;;;;;1.73;0.93;;;-2.40;99.90;;;;;;4972556;28;20084;-83
2021/12/25 14:23:05;;;;;;;2.25;0.98;;;-2.60;99.90;;;;;;4955890;28;20527;-84
2021/12/25 14:25:47;;;;;;;2.67;0.77;;;-2.70;99.90;;;;;;4989065;28;20054;-83
2021/12/25 14:28:20;;;;;;;3.60;1.67;;;-2.50;99.90;;;;;;4973070;28;20413;-83
2021/12/25 14:31:11;;;;;;;3.40;0.82;;;-2.10;99.90;;;;;;4956753;28;20112;-84
2021/12/25 14:33:39;;;;;;;7.05;0.80;;;-2.70;99.90;;;;;;4972110;28;20064;-83
2021/12/25 14:36:10;;;;;;;8.23;0.90;;;-3.90;99.90;;;;;;4988172;28;20061;-83
2021/12/25 14:38:38;;;;;;;2.33;1.00;;;-2.50;99.90;;;;;;4972529;28;20121;-84
2021/12/25 14:41:05;;;;;;;4.82;1.45;;;-2.80;99.90;;;;;;4976007;28;20053;-83
2021/12/25 14:43:31;;;;;;;;;;;-2.40;99.90;;;;;;4973419;28;20493;-83
2021/12/25 14:46:00;;;;;;;2.13;1.05;;;-1.80;99.90;;;;;;4988104;28;19933;-84
2021/12/25 14:48:33;;;;;;;4.85;2.25;;;-3.10;99.90;;;;;;4972669;28;20450;-83